sensor_id;sensor_type;location;lat;lon;timestamp;P1;P2;P0
76679;PMS5003;65597;51.520;-0.224;2023-10-08T00:01:35;14;12;
76679;PMS5003;65597;51.520;-0.224;2023-10-08T00:04:00;14;13;
76679;PMS5003;65597;51.520;-0.224;2023-10-08T00:06:25;12;12;
76679;PMS5003;65597;51.520;-0.224;2023-10-08T00:08:51;17;14;
76679;PMS5003;65597;51.520;-0.224;2023-10-08T00:11:16;14;13;
76679;PMS5003;65597;51.520;-0.224;2023-10-08T00:13:42;12;12;
76679;PMS5003;65597;51.520;-0.224;2023-10-08T00:16:07;11;11;
76679;PMS5003;65597;51.520;-0.224;2023-10-08T00:18:32;13;12;
76679;PMS5003;65597;51.520;-0.224;2023-10-08T00:20:58;13;12;
76679;PMS5003;65597;51.520;-0.224;2023-10-08T00:23:23;14;12;
76679;PMS5003;65597;51.520;-0.224;2023-10-08T00:25:49;14;13;
76679;PMS5003;65597;51.520;-0.224;2023-10-08T00:28:14;13;13;
76679;PMS5003;65597;51.520;-0.224;2023-10-08T00:30:39;13;13;
76679;PMS5003;65597;51.520;-0.224;2023-10-08T00:33:04;14;14;
76679;PMS5003;65597;51.520;-0.224;2023-10-08T00:35:31;15;13;
76679;PMS5003;65597;51.520;-0.224;2023-10-08T00:37:55;14;13;
76679;PMS5003;65597;51.520;-0.224;2023-10-08T00:40:20;13;11;
76679;PMS5003;65597;51.520;-0.224;2023-10-08T00:42:45;14;13;
76679;PMS5003;65597;51.520;-0.224;2023-10-08T00:45:11;13;13;
76679;PMS5003;65597;51.520;-0.224;2023-10-08T00:47:36;15;11;
76679;PMS5003;65597;51.520;-0.224;2023-10-08T00:50:01;11;11;
76679;PMS5003;65597;51.520;-0.224;2023-10-08T00:52:26;11;11;
76679;PMS5003;65597;51.520;-0.224;2023-10-08T00:54:51;13;11;
76679;PMS5003;65597;51.520;-0.224;2023-10-08T00:57:18;17;14;
76679;PMS5003;65597;51.520;-0.224;2023-10-08T00:59:41;11;10;
76679;PMS5003;65597;51.520;-0.224;2023-10-08T01:02:06;13;13;
76679;PMS5003;65597;51.520;-0.224;2023-10-08T01:04:32;14;13;
76679;PMS5003;65597;51.520;-0.224;2023-10-08T01:06:57;12;12;
76679;PMS5003;65597;51.520;-0.224;2023-10-08T01:09:22;13;11;
76679;PMS5003;65597;51.520;-0.224;2023-10-08T01:14:13;12;12;
76679;PMS5003;65597;51.520;-0.224;2023-10-08T01:16:38;14;13;
76679;PMS5003;65597;51.520;-0.224;2023-10-08T01:19:04;13;12;
76679;PMS5003;65597;51.520;-0.224;2023-10-08T01:21:29;13;13;
76679;PMS5003;65597;51.520;-0.224;2023-10-08T01:23:54;13;12;
76679;PMS5003;65597;51.520;-0.224;2023-10-08T01:26:20;15;14;
76679;PMS5003;65597;51.520;-0.224;2023-10-08T01:28:45;10;9;
76679;PMS5003;65597;51.520;-0.224;2023-10-08T01:31:10;13;12;
76679;PMS5003;65597;51.520;-0.224;2023-10-08T01:33:35;10;10;
76679;PMS5003;65597;51.520;-0.224;2023-10-08T01:36:00;13;12;
76679;PMS5003;65597;51.520;-0.224;2023-10-08T01:38:26;15;13;
76679;PMS5003;65597;51.520;-0.224;2023-10-08T01:40:51;20;15;
76679;PMS5003;65597;51.520;-0.224;2023-10-08T01:43:17;14;13;
76679;PMS5003;65597;51.520;-0.224;2023-10-08T01:45:42;19;15;
76679;PMS5003;65597;51.520;-0.224;2023-10-08T01:48:08;13;13;
76679;PMS5003;65597;51.520;-0.224;2023-10-08T01:50:32;12;12;
76679;PMS5003;65597;51.520;-0.224;2023-10-08T01:52:58;21;15;
76679;PMS5003;65597;51.520;-0.224;2023-10-08T01:55:23;16;13;
76679;PMS5003;65597;51.520;-0.224;2023-10-08T01:57:49;14;13;
76679;PMS5003;65597;51.520;-0.224;2023-10-08T02:00:15;18;15;
76679;PMS5003;65597;51.520;-0.224;2023-10-08T02:02:39;12;11;
76679;PMS5003;65597;51.520;-0.224;2023-10-08T02:05:04;19;16;
76679;PMS5003;65597;51.520;-0.224;2023-10-08T02:07:29;13;12;
76679;PMS5003;65597;51.520;-0.224;2023-10-08T02:09:55;14;14;
76679;PMS5003;65597;51.520;-0.224;2023-10-08T02:12:20;13;13;
76679;PMS5003;65597;51.520;-0.224;2023-10-08T02:14:45;16;15;
76679;PMS5003;65597;51.520;-0.224;2023-10-08T02:17:11;13;13;
76679;PMS5003;65597;51.520;-0.224;2023-10-08T02:19:36;12;11;
76679;PMS5003;65597;51.520;-0.224;2023-10-08T02:22:01;12;12;
76679;PMS5003;65597;51.520;-0.224;2023-10-08T02:24:27;13;13;
76679;PMS5003;65597;51.520;-0.224;2023-10-08T02:26:52;11;10;
76679;PMS5003;65597;51.520;-0.224;2023-10-08T02:29:17;17;12;
76679;PMS5003;65597;51.520;-0.224;2023-10-08T02:31:42;11;11;
76679;PMS5003;65597;51.520;-0.224;2023-10-08T02:34:08;12;12;
76679;PMS5003;65597;51.520;-0.224;2023-10-08T02:36:34;15;13;
76679;PMS5003;65597;51.520;-0.224;2023-10-08T02:38:58;14;13;
76679;PMS5003;65597;51.520;-0.224;2023-10-08T02:41:23;15;14;
76679;PMS5003;65597;51.520;-0.224;2023-10-08T02:43:49;12;12;
76679;PMS5003;65597;51.520;-0.224;2023-10-08T02:46:14;14;13;
76679;PMS5003;65597;51.520;-0.224;2023-10-08T02:48:40;14;12;
76679;PMS5003;65597;51.520;-0.224;2023-10-08T02:51:05;14;13;
76679;PMS5003;65597;51.520;-0.224;2023-10-08T02:53:31;15;13;
76679;PMS5003;65597;51.520;-0.224;2023-10-08T02:55:56;15;13;
76679;PMS5003;65597;51.520;-0.224;2023-10-08T02:58:21;15;14;
76679;PMS5003;65597;51.520;-0.224;2023-10-08T03:00:47;12;11;
76679;PMS5003;65597;51.520;-0.224;2023-10-08T03:03:12;12;12;
76679;PMS5003;65597;51.520;-0.224;2023-10-08T03:05:37;17;15;
76679;PMS5003;65597;51.520;-0.224;2023-10-08T03:08:02;14;13;
76679;PMS5003;65597;51.520;-0.224;2023-10-08T03:10:27;14;13;
76679;PMS5003;65597;51.520;-0.224;2023-10-08T03:12:54;17;17;
76679;PMS5003;65597;51.520;-0.224;2023-10-08T03:15:17;11;11;
76679;PMS5003;65597;51.520;-0.224;2023-10-08T03:17:42;14;13;
76679;PMS5003;65597;51.520;-0.224;2023-10-08T03:20:08;14;12;
76679;PMS5003;65597;51.520;-0.224;2023-10-08T03:22:33;15;14;
76679;PMS5003;65597;51.520;-0.224;2023-10-08T03:24:59;15;15;
76679;PMS5003;65597;51.520;-0.224;2023-10-08T03:27:24;13;13;
76679;PMS5003;65597;51.520;-0.224;2023-10-08T03:29:49;11;10;
76679;PMS5003;65597;51.520;-0.224;2023-10-08T03:32:14;14;13;
76679;PMS5003;65597;51.520;-0.224;2023-10-08T03:34:40;14;13;
76679;PMS5003;65597;51.520;-0.224;2023-10-08T03:37:06;16;15;
76679;PMS5003;65597;51.520;-0.224;2023-10-08T03:39:31;15;13;
76679;PMS5003;65597;51.520;-0.224;2023-10-08T03:41:56;17;15;
76679;PMS5003;65597;51.520;-0.224;2023-10-08T03:44:21;15;14;
76679;PMS5003;65597;51.520;-0.224;2023-10-08T03:46:47;13;13;
76679;PMS5003;65597;51.520;-0.224;2023-10-08T03:49:12;14;14;
76679;PMS5003;65597;51.520;-0.224;2023-10-08T03:51:38;15;14;
76679;PMS5003;65597;51.520;-0.224;2023-10-08T03:54:04;20;15;
76679;PMS5003;65597;51.520;-0.224;2023-10-08T03:56:29;13;12;
76679;PMS5003;65597;51.520;-0.224;2023-10-08T03:58:54;14;13;
76679;PMS5003;65597;51.520;-0.224;2023-10-08T04:01:20;16;14;
76679;PMS5003;65597;51.520;-0.224;2023-10-08T04:03:45;17;15;
76679;PMS5003;65597;51.520;-0.224;2023-10-08T04:06:10;14;13;
76679;PMS5003;65597;51.520;-0.224;2023-10-08T04:08:35;14;13;
76679;PMS5003;65597;51.520;-0.224;2023-10-08T04:11:00;12;12;
76679;PMS5003;65597;51.520;-0.224;2023-10-08T04:13:28;19;15;
76679;PMS5003;65597;51.520;-0.224;2023-10-08T04:15:51;15;15;
76679;PMS5003;65597;51.520;-0.224;2023-10-08T04:18:16;16;15;
76679;PMS5003;65597;51.520;-0.224;2023-10-08T04:20:41;12;12;
76679;PMS5003;65597;51.520;-0.224;2023-10-08T04:23:07;17;16;
76679;PMS5003;65597;51.520;-0.224;2023-10-08T04:25:32;14;13;
76679;PMS5003;65597;51.520;-0.224;2023-10-08T04:27:58;18;15;
76679;PMS5003;65597;51.520;-0.224;2023-10-08T04:30:23;21;17;
76679;PMS5003;65597;51.520;-0.224;2023-10-08T04:32:48;16;15;
76679;PMS5003;65597;51.520;-0.224;2023-10-08T04:35:13;18;18;
76679;PMS5003;65597;51.520;-0.224;2023-10-08T04:37:38;14;13;
76679;PMS5003;65597;51.520;-0.224;2023-10-08T04:40:04;16;14;
76679;PMS5003;65597;51.520;-0.224;2023-10-08T04:42:28;14;12;
76679;PMS5003;65597;51.520;-0.224;2023-10-08T04:44:54;16;16;
76679;PMS5003;65597;51.520;-0.224;2023-10-08T04:47:19;18;16;
76679;PMS5003;65597;51.520;-0.224;2023-10-08T04:49:45;19;17;
76679;PMS5003;65597;51.520;-0.224;2023-10-08T04:52:09;14;13;
76679;PMS5003;65597;51.520;-0.224;2023-10-08T04:54:35;16;15;
76679;PMS5003;65597;51.520;-0.224;2023-10-08T04:57:01;13;12;
76679;PMS5003;65597;51.520;-0.224;2023-10-08T04:59:26;17;15;
76679;PMS5003;65597;51.520;-0.224;2023-10-08T05:01:51;13;13;
76679;PMS5003;65597;51.520;-0.224;2023-10-08T05:04:16;15;15;
76679;PMS5003;65597;51.520;-0.224;2023-10-08T05:06:41;15;14;
76679;PMS5003;65597;51.520;-0.224;2023-10-08T05:09:08;18;16;
76679;PMS5003;65597;51.520;-0.224;2023-10-08T05:11:32;15;14;
76679;PMS5003;65597;51.520;-0.224;2023-10-08T05:13:59;18;15;
76679;PMS5003;65597;51.520;-0.224;2023-10-08T05:16:23;15;14;
76679;PMS5003;65597;51.520;-0.224;2023-10-08T05:18:48;13;13;
76679;PMS5003;65597;51.520;-0.224;2023-10-08T05:21:14;12;12;
76679;PMS5003;65597;51.520;-0.224;2023-10-08T05:23:39;14;13;
76679;PMS5003;65597;51.520;-0.224;2023-10-08T05:26:06;18;16;
76679;PMS5003;65597;51.520;-0.224;2023-10-08T05:28:30;16;14;
76679;PMS5003;65597;51.520;-0.224;2023-10-08T05:30:55;17;14;
76679;PMS5003;65597;51.520;-0.224;2023-10-08T05:33:20;12;12;
76679;PMS5003;65597;51.520;-0.224;2023-10-08T05:35:46;14;13;
76679;PMS5003;65597;51.520;-0.224;2023-10-08T05:38:13;17;15;
76679;PMS5003;65597;51.520;-0.224;2023-10-08T05:40:36;13;13;
76679;PMS5003;65597;51.520;-0.224;2023-10-08T05:43:01;14;14;
76679;PMS5003;65597;51.520;-0.224;2023-10-08T05:45:27;15;14;
76679;PMS5003;65597;51.520;-0.224;2023-10-08T05:47:52;15;14;
76679;PMS5003;65597;51.520;-0.224;2023-10-08T05:50:18;13;13;
76679;PMS5003;65597;51.520;-0.224;2023-10-08T05:52:43;13;13;
76679;PMS5003;65597;51.520;-0.224;2023-10-08T05:55:08;14;14;
76679;PMS5003;65597;51.520;-0.224;2023-10-08T05:57:34;13;13;
76679;PMS5003;65597;51.520;-0.224;2023-10-08T05:59:59;14;14;
76679;PMS5003;65597;51.520;-0.224;2023-10-08T06:02:26;14;13;
76679;PMS5003;65597;51.520;-0.224;2023-10-08T06:04:49;13;13;
76679;PMS5003;65597;51.520;-0.224;2023-10-08T06:07:15;15;14;
76679;PMS5003;65597;51.520;-0.224;2023-10-08T06:09:40;14;13;
76679;PMS5003;65597;51.520;-0.224;2023-10-08T06:12:06;13;10;
76679;PMS5003;65597;51.520;-0.224;2023-10-08T06:14:32;14;12;
76679;PMS5003;65597;51.520;-0.224;2023-10-08T06:16:56;15;14;
76679;PMS5003;65597;51.520;-0.224;2023-10-08T06:19:21;15;14;
76679;PMS5003;65597;51.520;-0.224;2023-10-08T06:21:46;14;13;
76679;PMS5003;65597;51.520;-0.224;2023-10-08T06:24:12;13;13;
76679;PMS5003;65597;51.520;-0.224;2023-10-08T06:26:37;14;13;
76679;PMS5003;65597;51.520;-0.224;2023-10-08T06:29:02;12;10;
76679;PMS5003;65597;51.520;-0.224;2023-10-08T06:31:28;17;16;
76679;PMS5003;65597;51.520;-0.224;2023-10-08T06:33:53;15;14;
76679;PMS5003;65597;51.520;-0.224;2023-10-08T06:36:18;13;12;
76679;PMS5003;65597;51.520;-0.224;2023-10-08T06:38:46;16;15;
76679;PMS5003;65597;51.520;-0.224;2023-10-08T06:41:09;16;15;
76679;PMS5003;65597;51.520;-0.224;2023-10-08T06:43:34;18;15;
76679;PMS5003;65597;51.520;-0.224;2023-10-08T06:45:59;15;14;
76679;PMS5003;65597;51.520;-0.224;2023-10-08T06:48:24;14;13;
76679;PMS5003;65597;51.520;-0.224;2023-10-08T06:50:51;13;13;
76679;PMS5003;65597;51.520;-0.224;2023-10-08T06:53:15;13;12;
76679;PMS5003;65597;51.520;-0.224;2023-10-08T06:55:40;14;13;
76679;PMS5003;65597;51.520;-0.224;2023-10-08T06:58:05;10;10;
76679;PMS5003;65597;51.520;-0.224;2023-10-08T07:00:31;12;11;
76679;PMS5003;65597;51.520;-0.224;2023-10-08T07:02:57;17;14;
76679;PMS5003;65597;51.520;-0.224;2023-10-08T07:05:21;12;12;
76679;PMS5003;65597;51.520;-0.224;2023-10-08T07:07:46;11;11;
76679;PMS5003;65597;51.520;-0.224;2023-10-08T07:10:11;17;13;
76679;PMS5003;65597;51.520;-0.224;2023-10-08T07:12:36;15;14;
76679;PMS5003;65597;51.520;-0.224;2023-10-08T07:15:03;15;13;
76679;PMS5003;65597;51.520;-0.224;2023-10-08T07:17:27;14;13;
76679;PMS5003;65597;51.520;-0.224;2023-10-08T07:19:52;14;14;
76679;PMS5003;65597;51.520;-0.224;2023-10-08T07:22:17;15;14;
76679;PMS5003;65597;51.520;-0.224;2023-10-08T07:24:43;15;14;
76679;PMS5003;65597;51.520;-0.224;2023-10-08T07:27:10;14;13;
76679;PMS5003;65597;51.520;-0.224;2023-10-08T07:29:33;12;12;
76679;PMS5003;65597;51.520;-0.224;2023-10-08T07:31:59;14;14;
76679;PMS5003;65597;51.520;-0.224;2023-10-08T07:34:24;12;12;
76679;PMS5003;65597;51.520;-0.224;2023-10-08T07:36:49;11;11;
76679;PMS5003;65597;51.520;-0.224;2023-10-08T07:39:15;13;11;
76679;PMS5003;65597;51.520;-0.224;2023-10-08T07:41:40;12;12;
76679;PMS5003;65597;51.520;-0.224;2023-10-08T07:44:05;12;11;
76679;PMS5003;65597;51.520;-0.224;2023-10-08T07:46:30;12;12;
76679;PMS5003;65597;51.520;-0.224;2023-10-08T07:48:56;13;11;
76679;PMS5003;65597;51.520;-0.224;2023-10-08T07:51:22;12;11;
76679;PMS5003;65597;51.520;-0.224;2023-10-08T07:53:46;13;11;
76679;PMS5003;65597;51.520;-0.224;2023-10-08T07:56:12;13;12;
76679;PMS5003;65597;51.520;-0.224;2023-10-08T07:58:37;11;11;
76679;PMS5003;65597;51.520;-0.224;2023-10-08T08:01:03;12;12;
76679;PMS5003;65597;51.520;-0.224;2023-10-08T08:03:28;10;10;
76679;PMS5003;65597;51.520;-0.224;2023-10-08T08:05:53;12;11;
76679;PMS5003;65597;51.520;-0.224;2023-10-08T08:08:19;12;11;
76679;PMS5003;65597;51.520;-0.224;2023-10-08T08:10:44;13;11;
76679;PMS5003;65597;51.520;-0.224;2023-10-08T08:13:09;10;9;
76679;PMS5003;65597;51.520;-0.224;2023-10-08T08:15:34;14;10;
76679;PMS5003;65597;51.520;-0.224;2023-10-08T08:17:59;13;10;
76679;PMS5003;65597;51.520;-0.224;2023-10-08T08:20:24;12;12;
76679;PMS5003;65597;51.520;-0.224;2023-10-08T08:22:49;13;13;
76679;PMS5003;65597;51.520;-0.224;2023-10-08T08:25:15;10;10;
76679;PMS5003;65597;51.520;-0.224;2023-10-08T08:27:43;13;13;
76679;PMS5003;65597;51.520;-0.224;2023-10-08T08:30:06;11;11;
76679;PMS5003;65597;51.520;-0.224;2023-10-08T08:32:30;12;11;
76679;PMS5003;65597;51.520;-0.224;2023-10-08T08:34:56;13;12;
76679;PMS5003;65597;51.520;-0.224;2023-10-08T08:37:21;11;10;
76679;PMS5003;65597;51.520;-0.224;2023-10-08T08:39:49;17;12;
76679;PMS5003;65597;51.520;-0.224;2023-10-08T08:42:13;11;11;
76679;PMS5003;65597;51.520;-0.224;2023-10-08T08:44:38;10;10;
76679;PMS5003;65597;51.520;-0.224;2023-10-08T08:47:03;13;13;
76679;PMS5003;65597;51.520;-0.224;2023-10-08T08:49:28;11;10;
76679;PMS5003;65597;51.520;-0.224;2023-10-08T08:51:55;9;9;
76679;PMS5003;65597;51.520;-0.224;2023-10-08T08:54:18;12;11;
76679;PMS5003;65597;51.520;-0.224;2023-10-08T08:56:44;9;9;
76679;PMS5003;65597;51.520;-0.224;2023-10-08T08:59:09;11;11;
76679;PMS5003;65597;51.520;-0.224;2023-10-08T09:01:34;16;13;
76679;PMS5003;65597;51.520;-0.224;2023-10-08T09:03:59;10;10;
76679;PMS5003;65597;51.520;-0.224;2023-10-08T09:06:25;10;10;
76679;PMS5003;65597;51.520;-0.224;2023-10-08T09:08:50;14;13;
76679;PMS5003;65597;51.520;-0.224;2023-10-08T09:11:16;12;11;
76679;PMS5003;65597;51.520;-0.224;2023-10-08T09:13:40;17;11;
76679;PMS5003;65597;51.520;-0.224;2023-10-08T09:16:08;11;11;
76679;PMS5003;65597;51.520;-0.224;2023-10-08T09:18:31;12;11;
76679;PMS5003;65597;51.520;-0.224;2023-10-08T09:20:56;13;11;
76679;PMS5003;65597;51.520;-0.224;2023-10-08T09:23:21;12;10;
76679;PMS5003;65597;51.520;-0.224;2023-10-08T09:25:47;14;13;
76679;PMS5003;65597;51.520;-0.224;2023-10-08T09:28:13;12;11;
76679;PMS5003;65597;51.520;-0.224;2023-10-08T09:30:37;11;11;
76679;PMS5003;65597;51.520;-0.224;2023-10-08T09:33:02;13;11;
76679;PMS5003;65597;51.520;-0.224;2023-10-08T09:35:27;10;9;
76679;PMS5003;65597;51.520;-0.224;2023-10-08T09:37:53;13;13;
76679;PMS5003;65597;51.520;-0.224;2023-10-08T09:40:21;10;10;
76679;PMS5003;65597;51.520;-0.224;2023-10-08T09:42:44;14;12;
76679;PMS5003;65597;51.520;-0.224;2023-10-08T09:45:09;9;9;
76679;PMS5003;65597;51.520;-0.224;2023-10-08T09:47:35;11;11;
76679;PMS5003;65597;51.520;-0.224;2023-10-08T09:50:00;14;11;
76679;PMS5003;65597;51.520;-0.224;2023-10-08T09:52:27;9;9;
76679;PMS5003;65597;51.520;-0.224;2023-10-08T09:54:56;10;10;
76679;PMS5003;65597;51.520;-0.224;2023-10-08T09:57:15;16;13;
76679;PMS5003;65597;51.520;-0.224;2023-10-08T09:59:40;9;9;
76679;PMS5003;65597;51.520;-0.224;2023-10-08T10:02:05;12;10;
76679;PMS5003;65597;51.520;-0.224;2023-10-08T10:04:32;11;11;
76679;PMS5003;65597;51.520;-0.224;2023-10-08T10:06:56;9;8;
76679;PMS5003;65597;51.520;-0.224;2023-10-08T10:09:22;12;10;
76679;PMS5003;65597;51.520;-0.224;2023-10-08T10:11:47;11;11;
76679;PMS5003;65597;51.520;-0.224;2023-10-08T10:14:12;11;10;
76679;PMS5003;65597;51.520;-0.224;2023-10-08T10:16:37;9;9;
76679;PMS5003;65597;51.520;-0.224;2023-10-08T10:19:02;11;9;
76679;PMS5003;65597;51.520;-0.224;2023-10-08T10:21:30;12;11;
76679;PMS5003;65597;51.520;-0.224;2023-10-08T10:23:53;7;7;
76679;PMS5003;65597;51.520;-0.224;2023-10-08T10:26:23;8;8;
76679;PMS5003;65597;51.520;-0.224;2023-10-08T10:28:43;13;10;
76679;PMS5003;65597;51.520;-0.224;2023-10-08T10:33:34;10;8;
76679;PMS5003;65597;51.520;-0.224;2023-10-08T10:36:00;10;9;
76679;PMS5003;65597;51.520;-0.224;2023-10-08T10:38:25;11;10;
76679;PMS5003;65597;51.520;-0.224;2023-10-08T10:40:51;10;10;
76679;PMS5003;65597;51.520;-0.224;2023-10-08T10:43:15;9;9;
76679;PMS5003;65597;51.520;-0.224;2023-10-08T10:45:41;11;10;
76679;PMS5003;65597;51.520;-0.224;2023-10-08T10:48:06;8;8;
76679;PMS5003;65597;51.520;-0.224;2023-10-08T10:50:31;9;9;
76679;PMS5003;65597;51.520;-0.224;2023-10-08T10:52:58;10;8;
76679;PMS5003;65597;51.520;-0.224;2023-10-08T10:55:23;13;8;
76679;PMS5003;65597;51.520;-0.224;2023-10-08T10:57:50;10;10;
76679;PMS5003;65597;51.520;-0.224;2023-10-08T11:00:14;10;10;
76679;PMS5003;65597;51.520;-0.224;2023-10-08T11:02:39;9;9;
76679;PMS5003;65597;51.520;-0.224;2023-10-08T11:05:06;10;8;
76679;PMS5003;65597;51.520;-0.224;2023-10-08T11:07:30;10;9;
76679;PMS5003;65597;51.520;-0.224;2023-10-08T11:09:55;10;10;
76679;PMS5003;65597;51.520;-0.224;2023-10-08T11:12:21;13;10;
76679;PMS5003;65597;51.520;-0.224;2023-10-08T11:14:47;9;9;
76679;PMS5003;65597;51.520;-0.224;2023-10-08T11:17:12;9;8;
76679;PMS5003;65597;51.520;-0.224;2023-10-08T11:19:37;13;12;
76679;PMS5003;65597;51.520;-0.224;2023-10-08T11:22:03;17;11;
76679;PMS5003;65597;51.520;-0.224;2023-10-08T11:24:28;9;9;
76679;PMS5003;65597;51.520;-0.224;2023-10-08T11:26:54;18;13;
76679;PMS5003;65597;51.520;-0.224;2023-10-08T11:29:19;11;10;
76679;PMS5003;65597;51.520;-0.224;2023-10-08T11:31:45;12;10;
76679;PMS5003;65597;51.520;-0.224;2023-10-08T11:34:10;10;9;
76679;PMS5003;65597;51.520;-0.224;2023-10-08T11:36:35;11;11;
76679;PMS5003;65597;51.520;-0.224;2023-10-08T11:41:28;14;13;
76679;PMS5003;65597;51.520;-0.224;2023-10-08T11:43:51;9;9;
76679;PMS5003;65597;51.520;-0.224;2023-10-08T11:46:16;13;12;
76679;PMS5003;65597;51.520;-0.224;2023-10-08T11:48:41;11;11;
76679;PMS5003;65597;51.520;-0.224;2023-10-08T11:51:07;11;11;
76679;PMS5003;65597;51.520;-0.224;2023-10-08T11:53:33;9;9;
76679;PMS5003;65597;51.520;-0.224;2023-10-08T11:55:58;8;8;
76679;PMS5003;65597;51.520;-0.224;2023-10-08T11:58:23;7;7;
76679;PMS5003;65597;51.520;-0.224;2023-10-08T12:00:48;8;7;
76679;PMS5003;65597;51.520;-0.224;2023-10-08T12:03:15;5;5;
76679;PMS5003;65597;51.520;-0.224;2023-10-08T12:05:39;8;7;
76679;PMS5003;65597;51.520;-0.224;2023-10-08T12:08:05;8;7;
76679;PMS5003;65597;51.520;-0.224;2023-10-08T12:10:30;10;9;
76679;PMS5003;65597;51.520;-0.224;2023-10-08T12:12:55;11;10;
76679;PMS5003;65597;51.520;-0.224;2023-10-08T12:15:20;8;8;
76679;PMS5003;65597;51.520;-0.224;2023-10-08T12:17:47;8;7;
76679;PMS5003;65597;51.520;-0.224;2023-10-08T12:20:11;8;7;
76679;PMS5003;65597;51.520;-0.224;2023-10-08T12:22:36;9;8;
76679;PMS5003;65597;51.520;-0.224;2023-10-08T12:25:01;9;9;
76679;PMS5003;65597;51.520;-0.224;2023-10-08T12:27:26;10;9;
76679;PMS5003;65597;51.520;-0.224;2023-10-08T12:29:52;8;8;
76679;PMS5003;65597;51.520;-0.224;2023-10-08T12:32:16;11;10;
76679;PMS5003;65597;51.520;-0.224;2023-10-08T12:34:42;8;7;
76679;PMS5003;65597;51.520;-0.224;2023-10-08T12:37:07;7;7;
76679;PMS5003;65597;51.520;-0.224;2023-10-08T12:39:32;8;8;
76679;PMS5003;65597;51.520;-0.224;2023-10-08T12:41:59;11;10;
76679;PMS5003;65597;51.520;-0.224;2023-10-08T12:44:23;12;12;
76679;PMS5003;65597;51.520;-0.224;2023-10-08T12:46:49;8;7;
76679;PMS5003;65597;51.520;-0.224;2023-10-08T12:49:14;8;8;
76679;PMS5003;65597;51.520;-0.224;2023-10-08T12:51:39;14;11;
76679;PMS5003;65597;51.520;-0.224;2023-10-08T12:54:05;12;12;
76679;PMS5003;65597;51.520;-0.224;2023-10-08T12:56:30;11;10;
76679;PMS5003;65597;51.520;-0.224;2023-10-08T12:58:55;6;6;
76679;PMS5003;65597;51.520;-0.224;2023-10-08T13:01:21;14;14;
76679;PMS5003;65597;51.520;-0.224;2023-10-08T13:03:46;11;10;
76679;PMS5003;65597;51.520;-0.224;2023-10-08T13:06:11;9;8;
76679;PMS5003;65597;51.520;-0.224;2023-10-08T13:08:36;7;6;
76679;PMS5003;65597;51.520;-0.224;2023-10-08T13:11:02;11;10;
76679;PMS5003;65597;51.520;-0.224;2023-10-08T13:13:27;14;13;
76679;PMS5003;65597;51.520;-0.224;2023-10-08T13:15:52;8;8;
76679;PMS5003;65597;51.520;-0.224;2023-10-08T13:18:19;8;8;
76679;PMS5003;65597;51.520;-0.224;2023-10-08T13:20:43;11;11;
76679;PMS5003;65597;51.520;-0.224;2023-10-08T13:23:08;10;9;
76679;PMS5003;65597;51.520;-0.224;2023-10-08T13:25:33;5;5;
76679;PMS5003;65597;51.520;-0.224;2023-10-08T13:27:59;8;8;
76679;PMS5003;65597;51.520;-0.224;2023-10-08T13:30:24;8;8;
76679;PMS5003;65597;51.520;-0.224;2023-10-08T13:32:50;9;8;
76679;PMS5003;65597;51.520;-0.224;2023-10-08T13:35:15;8;8;
76679;PMS5003;65597;51.520;-0.224;2023-10-08T13:37:40;9;7;
76679;PMS5003;65597;51.520;-0.224;2023-10-08T13:40:06;6;6;
76679;PMS5003;65597;51.520;-0.224;2023-10-08T13:42:31;11;9;
76679;PMS5003;65597;51.520;-0.224;2023-10-08T13:44:56;7;7;
76679;PMS5003;65597;51.520;-0.224;2023-10-08T13:47:21;11;9;
76679;PMS5003;65597;51.520;-0.224;2023-10-08T13:49:46;9;8;
76679;PMS5003;65597;51.520;-0.224;2023-10-08T13:52:12;9;9;
76679;PMS5003;65597;51.520;-0.224;2023-10-08T13:54:38;9;9;
76679;PMS5003;65597;51.520;-0.224;2023-10-08T13:57:02;10;10;
76679;PMS5003;65597;51.520;-0.224;2023-10-08T13:59:27;6;6;
76679;PMS5003;65597;51.520;-0.224;2023-10-08T14:01:53;9;9;
76679;PMS5003;65597;51.520;-0.224;2023-10-08T14:04:18;11;11;
76679;PMS5003;65597;51.520;-0.224;2023-10-08T14:06:43;7;6;
76679;PMS5003;65597;51.520;-0.224;2023-10-08T14:09:09;6;6;
76679;PMS5003;65597;51.520;-0.224;2023-10-08T14:11:34;6;6;
76679;PMS5003;65597;51.520;-0.224;2023-10-08T14:13:59;6;5;
76679;PMS5003;65597;51.520;-0.224;2023-10-08T14:16:24;7;7;
76679;PMS5003;65597;51.520;-0.224;2023-10-08T14:18:52;9;8;
76679;PMS5003;65597;51.520;-0.224;2023-10-08T14:21:15;7;7;
76679;PMS5003;65597;51.520;-0.224;2023-10-08T14:23:40;9;8;
76679;PMS5003;65597;51.520;-0.224;2023-10-08T14:26:06;6;6;
76679;PMS5003;65597;51.520;-0.224;2023-10-08T14:28:31;10;10;
76679;PMS5003;65597;51.520;-0.224;2023-10-08T14:30:56;6;6;
76679;PMS5003;65597;51.520;-0.224;2023-10-08T14:33:21;10;9;
76679;PMS5003;65597;51.520;-0.224;2023-10-08T14:35:47;11;10;
76679;PMS5003;65597;51.520;-0.224;2023-10-08T14:38:13;7;7;
76679;PMS5003;65597;51.520;-0.224;2023-10-08T14:40:38;6;6;
76679;PMS5003;65597;51.520;-0.224;2023-10-08T14:43:04;7;6;
76679;PMS5003;65597;51.520;-0.224;2023-10-08T14:45:29;8;8;
76679;PMS5003;65597;51.520;-0.224;2023-10-08T14:47:54;8;8;
76679;PMS5003;65597;51.520;-0.224;2023-10-08T14:50:20;11;9;
76679;PMS5003;65597;51.520;-0.224;2023-10-08T14:52:45;9;7;
76679;PMS5003;65597;51.520;-0.224;2023-10-08T14:55:11;11;9;
76679;PMS5003;65597;51.520;-0.224;2023-10-08T14:57:35;10;8;
76679;PMS5003;65597;51.520;-0.224;2023-10-08T15:00:01;13;11;
76679;PMS5003;65597;51.520;-0.224;2023-10-08T15:02:26;8;8;
76679;PMS5003;65597;51.520;-0.224;2023-10-08T15:04:52;7;7;
76679;PMS5003;65597;51.520;-0.224;2023-10-08T15:07:18;9;8;
76679;PMS5003;65597;51.520;-0.224;2023-10-08T15:09:42;9;8;
76679;PMS5003;65597;51.520;-0.224;2023-10-08T15:12:08;7;7;
76679;PMS5003;65597;51.520;-0.224;2023-10-08T15:14:33;7;7;
76679;PMS5003;65597;51.520;-0.224;2023-10-08T15:16:58;10;10;
76679;PMS5003;65597;51.520;-0.224;2023-10-08T15:19:26;8;8;
76679;PMS5003;65597;51.520;-0.224;2023-10-08T15:21:49;11;9;
76679;PMS5003;65597;51.520;-0.224;2023-10-08T15:24:14;9;9;
76679;PMS5003;65597;51.520;-0.224;2023-10-08T15:26:40;8;8;
76679;PMS5003;65597;51.520;-0.224;2023-10-08T15:29:05;8;8;
76679;PMS5003;65597;51.520;-0.224;2023-10-08T15:31:32;14;10;
76679;PMS5003;65597;51.520;-0.224;2023-10-08T15:33:56;13;11;
76679;PMS5003;65597;51.520;-0.224;2023-10-08T15:36:21;10;9;
76679;PMS5003;65597;51.520;-0.224;2023-10-08T15:38:47;9;8;
76679;PMS5003;65597;51.520;-0.224;2023-10-08T15:41:12;9;8;
76679;PMS5003;65597;51.520;-0.224;2023-10-08T15:43:39;8;8;
76679;PMS5003;65597;51.520;-0.224;2023-10-08T15:46:02;9;9;
76679;PMS5003;65597;51.520;-0.224;2023-10-08T15:48:27;9;9;
76679;PMS5003;65597;51.520;-0.224;2023-10-08T15:50:53;11;8;
76679;PMS5003;65597;51.520;-0.224;2023-10-08T15:53:18;7;7;
76679;PMS5003;65597;51.520;-0.224;2023-10-08T15:55:46;9;8;
76679;PMS5003;65597;51.520;-0.224;2023-10-08T15:58:09;8;8;
76679;PMS5003;65597;51.520;-0.224;2023-10-08T16:00:35;11;9;
76679;PMS5003;65597;51.520;-0.224;2023-10-08T16:03:01;10;10;